Het weer levert geen direct gevaar op.    Er zijn geen waarschuwingen afgegeven.

Weerstation
Sluispark-LeuvenLeuven-Sluispark

Weerstation
Wilsele-PutkapelWilsele-Putkapel



Nabijgelegen vliegvelden - METAR rapporten

   
EBBR - Wilsele bij Leuven
Gewijzigd: 27-11-2020 07:50
Nevel, Grotendeels bewolkt    Wind: ONO 1.9 km/h
Nevel, Grotendeels bewolkt
Wind: Wind: ONO 1.9 km/h
Temperatuur: 7°C
Dauwpunt: 6°C
Vochtigheid: 93%
Barometer: 1019 hPa
Bewolking: Grotendeels bewolkt
Zicht: 4 km
Bewolking: Gedeeltelijk bewolkt 152.4 m,
Grotendeels bewolkt 213.4 m
EBBR 270650Z 06001KT 3500 BR SCT005 BKN007 07/06 Q1019 TEMPO 1400 BR
EBAW - Antwerp
Gewijzigd: 27-11-2020 08:20
Nevel, Grotendeels bewolkt    Wind: ONO 7.4 km/h
Nevel, Grotendeels bewolkt
Wind: Wind: ONO 7.4 km/h
Temperatuur: 7°C
Voelt als: 6°C
Dauwpunt: 6°C
Vochtigheid: 93%
Barometer: 1019 hPa
Bewolking: Grotendeels bewolkt
Zicht: 4 km
Bewolking: Gedeeltelijk bewolkt 182.9 m,
Grotendeels bewolkt 487.7 m
EBAW 270720Z 06004KT 4000 BR SCT006 BKN016 07/06 Q1019 TEMPO BKN006
EBLG - Li├Ęge
Gewijzigd: 27-11-2020 08:20
Licht bewolkt    Wind: ZZO 13 km/h
Licht bewolkt
Wind: Wind: ZZO 13 km/h
Temperatuur: 4°C
Voelt als: 1°C
Dauwpunt: 2°C
Vochtigheid: 87%
Barometer: 1019 hPa
Bewolking: Licht bewolkt
Zicht: 8 km
Bewolking: Licht bewolkt 1005.8 m
EBLG 270720Z 15007KT 8000 FEW033 04/02 Q1019 NOSIG
EBCV - Mons/Bergen
Gewijzigd: 27-11-2020 08:25
Bewolking    Wind: varieert 3.7 km/h
Bewolking
Wind: Wind: varieert 3.7 km/h
Temperatuur: 5°C
Dauwpunt: 5°C
Vochtigheid: 100%
Barometer: 1019 hPa
Bewolking: Bewolking
Bewolking: Bewolking 61 m
EBCV 270725Z AUTO VRB02KT //// OVC002/// 05/05 Q1019 AMB
EHBK - Maastricht
Gewijzigd: 27-11-2020 08:25
Bewolking    Wind: ZZO 3.7 km/h
Bewolking
Wind: Wind: ZZO 3.7 km/h
Temperatuur: 5°C
Dauwpunt: 3°C
Vochtigheid: 87%
Barometer: 1019 hPa
Bewolking: Bewolking
Zicht: 8 km
Bewolking: Grotendeels bewolkt 213.4 m,
Bewolking 1005.8 m
EHBK 270725Z AUTO 15002KT 8000 BKN007 OVC033 05/03 Q1019 TEMPO BKN007
ELLX - Luxemburg
Gewijzigd: 27-11-2020 07:50
Licht bewolkt    Wind: NO 5.6 km/h
Licht bewolkt
Wind: Wind: NO 5.6 km/h
Temperatuur: -1°C
Voelt als: -3°C
Dauwpunt: -1°C
Vochtigheid: 100%
Barometer: 1019 hPa
Bewolking: Licht bewolkt
Zicht: 1 km
Bewolking: Licht bewolkt
ELLX 270650Z 05003KT 1000 R06/P2000N FEW000 M01/M01 Q1019 BECMG 0500 FZFG
EBOS - Oostende
Gewijzigd: 27-11-2020 08:20
Wat regen mogelijk, Grotendeels bewolkt    Wind: ONO 9.3 km/h
Wat regen mogelijk, Grotendeels bewolkt
Wind: Wind: ONO 9.3 km/h
Temperatuur: 8°C
Voelt als: 7°C
Dauwpunt: 6°C
Vochtigheid: 87%
Barometer: 1020 hPa
Bewolking: Grotendeels bewolkt
Zicht: meer dan 10 km
Bewolking: Licht bewolkt 609.6 m,
Grotendeels bewolkt 1219.2 m
EBOS 270720Z 06005KT 9999 -RA FEW020 BKN040 08/06 Q1020 TEMPO 4500 -DZ BKN011
  

Script ontwikkeld door  Saratoga-weather.org Aangepast voor de template door  Weerstation Leuven

U vindt ons ook hier:

UK Metoffice

WeatherCloud

European Weather Network

Weather Underground

Benelux Weather Network

AWEKAS

WeatherlinkIP

HAMweather, WeatherForYou, PWS Weather

Het Weer Aktueel

Apparatuur in gebruik:

Weer-station
Davis VP2 weatherstation

Weer-programma
Meteobridge

Weer-computer
D-Link DIR-505

Webleverancier
Robohost

Davis VP2 weatherstation

Meteobridge

D-Link DIR-505

Robohost